Time;durP1;ratioP1;P1;durP2;ratioP2;P2;SDS_P1;SDS_P2;PMS_P1;PMS_P2;Temp;Humidity;BMP_temperature;BMP_pressure;BME280_temperature;BME280_humidity;BME280_pressure;Samples;Min_cycle;Max_cycle;Signal;HPM_P1;HPM_P2
2022/03/08 00:02:19;;;;;;;11.18;6.68;;;;;;;;;;4778654;29;20227;-77
2022/03/08 00:07:16;;;;;;;12.30;8.73;;;;;;;;;;5176024;27;20504;-76
2022/03/08 00:09:43;;;;;;;11.75;8.30;;;;;;;;;;5187575;27;20184;-76
2022/03/08 00:12:10;;;;;;;9.52;6.97;;;;;;;;;;5189352;27;20186;-76
2022/03/08 00:14:36;;;;;;;7.70;6.88;;;;;;;;;;5134809;27;20634;-77
2022/03/08 00:17:02;;;;;;;12.73;7.70;;;;;;;;;;5063872;28;20709;-77
2022/03/08 00:19:28;;;;;;;7.80;6.55;;;;;;;;;;4958156;28;20271;-78
2022/03/08 00:21:54;;;;;;;8.48;6.68;;;;;;;;;;4890975;28;20205;-77
2022/03/08 00:24:20;;;;;;;8.50;6.30;;;;;;;;;;4777191;29;20262;-79
2022/03/08 00:26:46;;;;;;;8.93;7.30;;;;;;;;;;4658819;30;20646;-77
2022/03/08 00:30:57;;;;;;;8.70;7.10;;;;;;;;;;5193024;27;20484;-76
2022/03/08 00:33:24;;;;;;;9.98;7.35;;;;;;;;;;5170576;27;20279;-77
2022/03/08 00:35:50;;;;;;;8.77;6.60;;;;;;;;;;5187801;27;20679;-76
2022/03/08 00:38:17;;;;;;;10.50;7.05;;;;;;;;;;5166166;27;20185;-77
2022/03/08 00:40:43;;;;;;;9.88;6.97;;;;;;;;;;5129156;27;20238;-77
2022/03/08 00:43:09;;;;;;;9.50;6.43;;;;;;;;;;4939441;28;20259;-77
2022/03/08 00:45:35;;;;;;;10.30;6.95;;;;;;;;;;4911224;29;20601;-77
2022/03/08 00:48:01;;;;;;;9.05;7.20;;;;;;;;;;4811744;29;20559;-77
2022/03/08 00:50:28;;;;;;;8.73;7.07;;;;;;;;;;4634854;30;20248;-78
2022/03/08 00:55:24;;;;;;;11.75;7.07;;;;;;;;;;5192424;27;20815;-76
2022/03/08 00:57:50;;;;;;;8.30;6.82;;;;;;;;;;5187918;27;20188;-77
2022/03/08 01:00:18;;;;;;;7.40;6.70;;;;;;;;;;5192254;27;20184;-75
2022/03/08 01:02:44;;;;;;;9.07;5.97;;;;;;;;;;5155529;27;20190;-76
2022/03/08 01:05:10;;;;;;;8.45;6.10;;;;;;;;;;5138331;27;20540;-76
2022/03/08 01:07:36;;;;;;;10.18;6.90;;;;;;;;;;5108508;28;20565;-77
2022/03/08 01:10:03;;;;;;;10.48;6.22;;;;;;;;;;5039763;28;20769;-76
2022/03/08 01:12:29;;;;;;;9.13;6.72;;;;;;;;;;4916666;28;20207;-76
2022/03/08 01:14:55;;;;;;;8.48;5.30;;;;;;;;;;4782966;29;20234;-76
2022/03/08 01:19:37;;;;;;;7.10;6.30;;;;;;;;;;5192936;27;20468;-77
2022/03/08 01:22:03;;;;;;;11.80;7.00;;;;;;;;;;5186724;27;20192;-76
2022/03/08 01:24:30;;;;;;;9.77;6.80;;;;;;;;;;5170749;27;20241;-76
2022/03/08 01:26:56;;;;;;;10.82;7.70;;;;;;;;;;5117092;27;20626;-75
2022/03/08 01:29:23;;;;;;;9.23;6.90;;;;;;;;;;5059567;28;20200;-76
2022/03/08 01:31:49;;;;;;;10.15;6.82;;;;;;;;;;5042790;28;20460;-77
2022/03/08 01:34:15;;;;;;;12.68;6.72;;;;;;;;;;4997655;28;20207;-77
2022/03/08 01:36:41;;;;;;;12.15;7.07;;;;;;;;;;4853908;29;20593;-79
2022/03/08 01:39:08;;;;;;;11.82;7.53;;;;;;;;;;4730113;30;20236;-76
2022/03/08 01:44:33;;;;;;;7.18;6.47;;;;;;;;;;5193017;27;20480;-78
2022/03/08 01:46:59;;;;;;;11.20;7.07;;;;;;;;;;5156512;27;20213;-78
2022/03/08 01:49:26;;;;;;;11.15;7.65;;;;;;;;;;5148868;27;20597;-77
2022/03/08 01:51:52;;;;;;;9.00;6.30;;;;;;;;;;5136769;27;20252;-77
2022/03/08 01:54:18;;;;;;;9.10;6.78;;;;;;;;;;5060035;28;20191;-76
2022/03/08 01:56:44;;;;;;;10.82;7.05;;;;;;;;;;5014720;28;20239;-78
2022/03/08 01:59:10;;;;;;;10.93;6.82;;;;;;;;;;4931180;28;20193;-77
2022/03/08 02:01:36;;;;;;;7.60;6.77;;;;;;;;;;4856906;29;20212;-76
2022/03/08 02:04:02;;;;;;;12.23;6.70;;;;;;;;;;4561904;30;20499;-76
2022/03/08 02:08:14;;;;;;;8.90;6.72;;;;;;;;;;5192849;27;21007;-77
2022/03/08 02:10:40;;;;;;;10.45;6.93;;;;;;;;;;5187770;27;20192;-76
2022/03/08 02:13:06;;;;;;;9.80;6.53;;;;;;;;;;5167665;27;20253;-76
2022/03/08 02:15:32;;;;;;;13.13;7.15;;;;;;;;;;5143334;27;20190;-77
2022/03/08 02:17:59;;;;;;;8.33;7.00;;;;;;;;;;5113165;27;20275;-77
2022/03/08 02:20:26;;;;;;;11.25;7.13;;;;;;;;;;5056234;28;20429;-77
2022/03/08 02:22:52;;;;;;;9.80;6.93;;;;;;;;;;4974191;28;20208;-75
2022/03/08 02:25:19;;;;;;;7.80;5.60;;;;;;;;;;4869958;29;20632;-77
2022/03/08 02:27:52;;;;;;;10.63;6.35;;;;;;;;;;4615113;30;20243;-77
2022/03/08 02:31:41;;;;;;;11.15;6.80;;;;;;;;;;5151389;27;20487;-77
2022/03/08 02:34:07;;;;;;;7.53;6.37;;;;;;;;;;5112203;27;20545;-77
2022/03/08 02:36:33;;;;;;;8.80;7.32;;;;;;;;;;5120350;28;20460;-77
2022/03/08 02:38:59;;;;;;;11.10;6.82;;;;;;;;;;5083324;28;20199;-76
2022/03/08 02:41:25;;;;;;;7.57;5.65;;;;;;;;;;5007287;28;20202;-77
2022/03/08 02:43:52;;;;;;;11.27;6.85;;;;;;;;;;4925084;28;20604;-76
2022/03/08 02:46:18;;;;;;;8.95;6.70;;;;;;;;;;4877029;29;20207;-76
2022/03/08 02:48:44;;;;;;;11.50;7.37;;;;;;;;;;4765783;29;20684;-77
2022/03/08 02:51:10;;;;;;;10.97;7.43;;;;;;;;;;4539768;30;21046;-76
2022/03/08 02:55:37;;;;;;;9.18;6.10;;;;;;;;;;5190516;27;21009;-77
2022/03/08 02:58:04;;;;;;;12.20;6.75;;;;;;;;;;5175738;27;20182;-75
2022/03/08 03:00:31;;;;;;;11.98;7.07;;;;;;;;;;5157266;27;20640;-77
2022/03/08 03:02:57;;;;;;;14.60;6.88;;;;;;;;;;5167556;27;20221;-77
2022/03/08 03:05:23;;;;;;;9.68;6.35;;;;;;;;;;5114948;27;20225;-76
2022/03/08 03:07:50;;;;;;;8.82;7.22;;;;;;;;;;5043829;28;20242;-77
2022/03/08 03:10:21;;;;;;;11.13;8.45;;;;;;;;;;5062395;28;20548;-78
2022/03/08 03:12:47;;;;;;;11.60;6.72;;;;;;;;;;4946205;28;20248;-75
2022/03/08 03:15:14;;;;;;;10.18;6.80;;;;;;;;;;4845519;28;20214;-77
2022/03/08 03:19:51;;;;;;;9.77;6.78;;;;;;;;;;5192987;27;20485;-75
2022/03/08 03:22:17;;;;;;;11.30;7.03;;;;;;;;;;5169463;27;20199;-76
2022/03/08 03:24:43;;;;;;;10.87;7.57;;;;;;;;;;5146623;27;20182;-77
2022/03/08 03:27:09;;;;;;;8.82;7.43;;;;;;;;;;5115529;28;20467;-75
2022/03/08 03:29:35;;;;;;;11.13;7.10;;;;;;;;;;5077204;28;20191;-77
2022/03/08 03:32:01;;;;;;;9.10;7.27;;;;;;;;;;5040133;28;20568;-77
2022/03/08 03:34:27;;;;;;;8.43;7.30;;;;;;;;;;5039947;28;20432;-76
2022/03/08 03:36:53;;;;;;;12.87;7.67;;;;;;;;;;4970578;28;20456;-76
2022/03/08 03:39:19;;;;;;;9.93;6.75;;;;;;;;;;4869495;29;20609;-76
2022/03/08 03:43:48;;;;;;;12.43;6.93;;;;;;;;;;5193431;27;20484;-77
2022/03/08 03:46:14;;;;;;;13.90;7.30;;;;;;;;;;5179569;27;20217;-78
2022/03/08 03:48:40;;;;;;;13.35;7.53;;;;;;;;;;5151484;27;20821;-78
2022/03/08 03:51:06;;;;;;;9.45;6.53;;;;;;;;;;5144847;27;20251;-77
2022/03/08 03:53:32;;;;;;;9.98;7.10;;;;;;;;;;5082045;28;20613;-76
2022/03/08 03:55:58;;;;;;;8.48;7.20;;;;;;;;;;5009282;28;20207;-77
2022/03/08 03:58:24;;;;;;;20.83;6.70;;;;;;;;;;4996569;28;20215;-76
2022/03/08 04:00:50;;;;;;;12.63;6.50;;;;;;;;;;4937422;28;20844;-75
2022/03/08 04:03:18;;;;;;;10.50;7.70;;;;;;;;;;4720934;29;20237;-77
2022/03/08 04:07:13;;;;;;;12.75;8.23;;;;;;;;;;5176869;27;20495;-77
2022/03/08 04:09:39;;;;;;;9.60;6.05;;;;;;;;;;5170636;27;20200;-76
2022/03/08 04:12:05;;;;;;;9.93;7.27;;;;;;;;;;5172283;27;20238;-78
2022/03/08 04:14:31;;;;;;;12.27;6.95;;;;;;;;;;5163162;27;20448;-76
2022/03/08 04:16:57;;;;;;;8.05;6.30;;;;;;;;;;5102866;28;20213;-76
2022/03/08 04:19:23;;;;;;;10.75;7.00;;;;;;;;;;5041603;28;20181;-76
2022/03/08 04:21:50;;;;;;;8.40;6.40;;;;;;;;;;5017853;28;20233;-77
2022/03/08 04:24:16;;;;;;;8.25;5.50;;;;;;;;;;4897860;28;20204;-78
2022/03/08 04:26:42;;;;;;;7.70;5.40;;;;;;;;;;4708046;29;20296;-77
2022/03/08 04:31:25;;;;;;;11.23;6.75;;;;;;;;;;5193309;27;20480;-75
2022/03/08 04:33:51;;;;;;;9.05;6.13;;;;;;;;;;5187651;27;20554;-77
2022/03/08 04:36:17;;;;;;;11.95;6.63;;;;;;;;;;5183693;27;20677;-77
2022/03/08 04:38:43;;;;;;;12.95;6.20;;;;;;;;;;5170069;27;20199;-78
2022/03/08 04:41:09;;;;;;;15.10;7.10;;;;;;;;;;5137421;27;20219;-76
2022/03/08 04:43:35;;;;;;;9.10;6.32;;;;;;;;;;5023298;28;20196;-75
2022/03/08 04:46:01;;;;;;;7.57;6.10;;;;;;;;;;4928532;28;20276;-74
2022/03/08 04:48:27;;;;;;;9.57;6.60;;;;;;;;;;4838627;29;20562;-77
2022/03/08 04:50:53;;;;;;;10.30;5.97;;;;;;;;;;4720350;29;20645;-76
2022/03/08 04:55:06;;;;;;;6.70;5.97;;;;;;;;;;5192539;27;20484;-77
2022/03/08 04:57:32;;;;;;;10.95;6.80;;;;;;;;;;5168437;27;20206;-77
2022/03/08 04:59:59;;;;;;;10.60;7.72;;;;;;;;;;5151263;27;20241;-76
2022/03/08 05:02:25;;;;;;;10.60;6.85;;;;;;;;;;5108462;27;20188;-76
2022/03/08 05:04:51;;;;;;;8.80;6.97;;;;;;;;;;5020721;28;20200;-78
2022/03/08 05:07:17;;;;;;;7.78;6.00;;;;;;;;;;5000350;28;20210;-76
2022/03/08 05:09:43;;;;;;;10.40;6.65;;;;;;;;;;4914443;28;20285;-77
2022/03/08 05:12:09;;;;;;;14.32;7.45;;;;;;;;;;4817619;29;20292;-77
2022/03/08 05:14:36;;;;;;;17.55;7.57;;;;;;;;;;4650088;29;20698;-77
2022/03/08 05:18:19;;;;;;;11.38;7.53;;;;;;;;;;5192908;27;20821;-76
2022/03/08 05:20:45;;;;;;;12.35;8.02;;;;;;;;;;5187462;27;20239;-75
2022/03/08 05:23:11;;;;;;;10.60;6.83;;;;;;;;;;5184388;27;20228;-77
2022/03/08 05:25:37;;;;;;;18.25;8.80;;;;;;;;;;5135151;27;20783;-75
2022/03/08 05:28:03;;;;;;;12.27;7.43;;;;;;;;;;5072957;28;20254;-77
2022/03/08 05:30:29;;;;;;;12.70;7.68;;;;;;;;;;5019599;28;20430;-79
2022/03/08 05:32:55;;;;;;;12.60;8.02;;;;;;;;;;4931338;28;20212;-76
2022/03/08 05:35:21;;;;;;;10.67;7.47;;;;;;;;;;4806979;29;20673;-76
2022/03/08 05:37:47;;;;;;;13.18;8.23;;;;;;;;;;4633435;30;20523;-77
2022/03/08 05:42:32;;;;;;;10.75;7.95;;;;;;;;;;5193002;27;20336;-76
2022/03/08 05:44:58;;;;;;;13.00;7.57;;;;;;;;;;5153306;27;20193;-76
2022/03/08 05:47:24;;;;;;;18.73;7.70;;;;;;;;;;5158948;27;20212;-76
2022/03/08 05:49:50;;;;;;;11.20;7.28;;;;;;;;;;5124932;27;20208;-77
2022/03/08 05:52:16;;;;;;;10.63;8.00;;;;;;;;;;5066362;28;20716;-76
2022/03/08 05:54:42;;;;;;;10.25;7.55;;;;;;;;;;5083628;28;20192;-75
2022/03/08 05:57:08;;;;;;;10.98;7.00;;;;;;;;;;5004172;28;20238;-76
2022/03/08 05:59:34;;;;;;;10.52;6.80;;;;;;;;;;4887390;29;20645;-76
2022/03/08 06:02:00;;;;;;;11.00;6.37;;;;;;;;;;4850147;29;20290;-76
2022/03/08 06:06:44;;;;;;;9.80;7.40;;;;;;;;;;5180958;27;20493;-76
2022/03/08 06:09:10;;;;;;;8.95;6.47;;;;;;;;;;5187480;27;20192;-77
2022/03/08 06:11:36;;;;;;;11.38;7.35;;;;;;;;;;5167321;27;20189;-76
2022/03/08 06:14:02;;;;;;;10.45;7.28;;;;;;;;;;5129723;27;20193;-78
2022/03/08 06:16:28;;;;;;;13.40;6.00;;;;;;;;;;5060117;28;20210;-77
2022/03/08 06:18:56;;;;;;;11.15;6.63;;;;;;;;;;5013487;28;20196;-78
2022/03/08 06:21:22;;;;;;;8.82;6.30;;;;;;;;;;4993378;28;20280;-78
2022/03/08 06:23:48;;;;;;;7.88;5.35;;;;;;;;;;4878797;28;20679;-77
2022/03/08 06:28:52;;;;;;;9.18;6.22;;;;;;;;;;5192981;27;20287;-76
2022/03/08 06:31:18;;;;;;;8.27;6.25;;;;;;;;;;5170732;27;20291;-76
2022/03/08 06:33:44;;;;;;;10.77;7.05;;;;;;;;;;5144997;27;20225;-75
2022/03/08 06:36:10;;;;;;;7.90;7.10;;;;;;;;;;5099359;28;20251;-77
2022/03/08 06:38:36;;;;;;;9.20;6.80;;;;;;;;;;5067394;28;20423;-77
2022/03/08 06:41:02;;;;;;;8.75;6.35;;;;;;;;;;5050063;28;20820;-76
2022/03/08 06:43:28;;;;;;;8.10;6.35;;;;;;;;;;5014155;28;20201;-77
2022/03/08 06:45:54;;;;;;;8.00;7.10;;;;;;;;;;4947798;28;20219;-77
2022/03/08 06:48:20;;;;;;;7.43;6.73;;;;;;;;;;4863471;28;20479;-77
2022/03/08 06:53:23;;;;;;;8.82;6.50;;;;;;;;;;5193031;27;20479;-78
2022/03/08 06:55:50;;;;;;;13.95;7.50;;;;;;;;;;5166439;27;20219;-77
2022/03/08 06:58:16;;;;;;;8.55;6.50;;;;;;;;;;5170862;27;20228;-76
2022/03/08 07:00:42;;;;;;;12.27;7.65;;;;;;;;;;5139794;27;20540;-77
2022/03/08 07:03:08;;;;;;;10.75;7.55;;;;;;;;;;5108271;28;20197;-78
2022/03/08 07:05:36;;;;;;;10.93;6.97;;;;;;;;;;5027782;28;20198;-76
2022/03/08 07:08:02;;;;;;;20.30;7.03;;;;;;;;;;5031212;28;20201;-77
2022/03/08 07:10:28;;;;;;;10.05;7.15;;;;;;;;;;4961120;28;20249;-76
2022/03/08 07:12:54;;;;;;;10.60;7.63;;;;;;;;;;4711246;29;20707;-77
2022/03/08 07:16:52;;;;;;;13.93;8.43;;;;;;;;;;5179444;27;20495;-76
2022/03/08 07:19:18;;;;;;;12.07;7.80;;;;;;;;;;5170805;27;20190;-77
2022/03/08 07:21:48;;;;;;;15.73;7.88;;;;;;;;;;5151386;27;20201;-76
2022/03/08 07:24:14;;;;;;;12.55;7.40;;;;;;;;;;5166145;27;20196;-75
2022/03/08 07:26:40;;;;;;;14.73;8.77;;;;;;;;;;5117684;27;20211;-77
2022/03/08 07:29:06;;;;;;;9.80;7.15;;;;;;;;;;5066088;28;20685;-75
2022/03/08 07:31:33;;;;;;;10.20;7.15;;;;;;;;;;4949003;28;20244;-77
2022/03/08 07:33:59;;;;;;;9.95;6.75;;;;;;;;;;4845382;29;20546;-76
2022/03/08 07:36:25;;;;;;;10.07;6.78;;;;;;;;;;4709180;29;20242;-76
2022/03/08 07:41:18;;;;;;;9.40;6.47;;;;;;;;;;5193308;27;20294;-78
2022/03/08 07:43:45;;;;;;;9.02;6.50;;;;;;;;;;5186907;27;20173;-76
2022/03/08 07:46:11;;;;;;;9.10;6.75;;;;;;;;;;5150363;27;20293;-77
2022/03/08 07:48:37;;;;;;;11.00;7.05;;;;;;;;;;5093270;28;20203;-78
2022/03/08 07:51:04;;;;;;;7.80;6.40;;;;;;;;;;5074572;28;20267;-77
2022/03/08 07:53:30;;;;;;;20.45;6.97;;;;;;;;;;5044007;28;20210;-75
2022/03/08 07:55:56;;;;;;;12.15;6.68;;;;;;;;;;4979362;28;20577;-76
2022/03/08 07:58:23;;;;;;;9.70;6.90;;;;;;;;;;4910750;28;20206;-76
2022/03/08 08:00:49;;;;;;;10.48;6.55;;;;;;;;;;4686777;29;20245;-77
2022/03/08 08:05:44;;;;;;;10.60;6.75;;;;;;;;;;5183001;27;20313;-75
2022/03/08 08:08:10;;;;;;;8.45;6.60;;;;;;;;;;5165953;27;20194;-76
2022/03/08 08:10:36;;;;;;;7.60;6.07;;;;;;;;;;5187127;27;20223;-77
2022/03/08 08:13:02;;;;;;;6.70;5.03;;;;;;;;;;5124907;27;20291;-76
2022/03/08 08:15:29;;;;;;;7.85;6.10;;;;;;;;;;5071799;28;20782;-75
2022/03/08 08:17:54;;;;;;;9.00;6.55;;;;;;;;;;5060810;28;20401;-77
2022/03/08 08:20:21;;;;;;;8.40;5.77;;;;;;;;;;5074724;28;20272;-77
2022/03/08 08:22:47;;;;;;;8.35;6.43;;;;;;;;;;5019515;28;20526;-77
2022/03/08 08:25:14;;;;;;;6.90;5.90;;;;;;;;;;4829096;29;20226;-77
2022/03/08 08:30:13;;;;;;;10.05;6.95;;;;;;;;;;5192818;27;20290;-77
2022/03/08 08:32:39;;;;;;;7.68;5.85;;;;;;;;;;5170755;27;20199;-75
2022/03/08 08:35:06;;;;;;;7.30;6.40;;;;;;;;;;5191622;27;20226;-77
2022/03/08 08:37:32;;;;;;;8.25;6.10;;;;;;;;;;5168677;27;20232;-76
2022/03/08 08:39:58;;;;;;;10.38;6.35;;;;;;;;;;5128246;27;20756;-77
2022/03/08 08:42:24;;;;;;;7.43;5.67;;;;;;;;;;5067957;28;20209;-76
2022/03/08 08:44:50;;;;;;;6.55;5.72;;;;;;;;;;4978525;28;20465;-76
2022/03/08 08:47:17;;;;;;;9.43;5.25;;;;;;;;;;4927200;28;20214;-77
2022/03/08 08:49:43;;;;;;;8.20;5.55;;;;;;;;;;4716917;29;20236;-76
2022/03/08 08:54:46;;;;;;;7.72;5.72;;;;;;;;;;5192933;27;20295;-76
2022/03/08 08:57:12;;;;;;;6.72;5.65;;;;;;;;;;5136530;27;20252;-77
2022/03/08 08:59:38;;;;;;;10.10;6.10;;;;;;;;;;5171019;27;20221;-76
2022/03/08 09:02:04;;;;;;;6.10;5.00;;;;;;;;;;5154664;27;20426;-76
2022/03/08 09:04:30;;;;;;;9.68;6.88;;;;;;;;;;5108027;28;20435;-77
2022/03/08 09:06:56;;;;;;;9.35;5.70;;;;;;;;;;5082146;28;20215;-77
2022/03/08 09:09:22;;;;;;;6.40;5.63;;;;;;;;;;5020947;28;21553;-77
2022/03/08 09:11:48;;;;;;;7.00;5.33;;;;;;;;;;4900295;28;20237;-77
2022/03/08 09:14:14;;;;;;;6.43;4.90;;;;;;;;;;4827812;29;20492;-77
2022/03/08 09:18:39;;;;;;;5.60;5.10;;;;;;;;;;5192882;27;20472;-76
2022/03/08 09:21:05;;;;;;;6.93;5.77;;;;;;;;;;5187831;27;20189;-76
2022/03/08 09:23:31;;;;;;;5.57;4.63;;;;;;;;;;5165358;27;20508;-77
2022/03/08 09:25:57;;;;;;;6.70;4.80;;;;;;;;;;5165236;27;20212;-75
2022/03/08 09:28:23;;;;;;;13.30;5.50;;;;;;;;;;5096227;28;20558;-77
2022/03/08 09:30:49;;;;;;;5.03;3.67;;;;;;;;;;5075294;28;20426;-76
2022/03/08 09:33:15;;;;;;;6.53;4.43;;;;;;;;;;5060957;28;20428;-76
2022/03/08 09:35:41;;;;;;;6.70;4.30;;;;;;;;;;4925945;28;20439;-76
2022/03/08 09:38:07;;;;;;;6.93;4.40;;;;;;;;;;4774113;29;20480;-77
2022/03/08 09:42:34;;;;;;;4.60;4.10;;;;;;;;;;5192874;27;20826;-76
2022/03/08 09:45:00;;;;;;;6.23;4.10;;;;;;;;;;5170407;27;20437;-79
2022/03/08 09:47:27;;;;;;;6.27;4.23;;;;;;;;;;5160881;27;20443;-77
2022/03/08 09:49:53;;;;;;;11.50;4.50;;;;;;;;;;5158263;27;20423;-78
2022/03/08 09:52:19;;;;;;;4.33;3.50;;;;;;;;;;5112483;27;20401;-75
2022/03/08 09:54:45;;;;;;;6.70;4.30;;;;;;;;;;5073456;28;20519;-76
2022/03/08 09:57:14;;;;;;;6.20;4.47;;;;;;;;;;5085380;28;20420;-76
2022/03/08 09:59:41;;;;;;;4.37;3.93;;;;;;;;;;4999702;28;20431;-77
2022/03/08 10:02:07;;;;;;;9.13;4.30;;;;;;;;;;4883725;29;20603;-75
2022/03/08 10:06:21;;;;;;;12.50;4.60;;;;;;;;;;5184822;27;20487;-77
2022/03/08 10:08:47;;;;;;;6.27;4.13;;;;;;;;;;5188168;27;20757;-77
2022/03/08 10:11:14;;;;;;;4.70;4.30;;;;;;;;;;5191744;27;20440;-78
2022/03/08 10:13:46;;;;;;;5.03;4.10;;;;;;;;;;5189569;27;20711;-76
2022/03/08 10:16:16;;;;;;;9.80;3.63;;;;;;;;;;5156762;27;20439;-76
2022/03/08 10:18:45;;;;;;;4.50;4.10;;;;;;;;;;5113094;27;20448;-77
2022/03/08 10:21:27;;;;;;;8.03;4.20;;;;;;;;;;5051195;27;20512;-76
2022/03/08 10:23:54;;;;;;;4.30;3.90;;;;;;;;;;4913236;28;20411;-77
2022/03/08 10:26:20;;;;;;;8.30;4.53;;;;;;;;;;4822049;29;21062;-77
2022/03/08 10:31:16;;;;;;;4.03;3.50;;;;;;;;;;5192646;27;20284;-79
2022/03/08 10:33:43;;;;;;;4.07;3.37;;;;;;;;;;5187473;27;20499;-77
2022/03/08 10:36:28;;;;;;;3.90;3.57;;;;;;;;;;5165416;27;20840;-76
2022/03/08 10:39:08;;;;;;;6.13;4.03;;;;;;;;;;5126498;27;20455;-77
2022/03/08 10:41:39;;;;;;;4.03;3.60;;;;;;;;;;4984702;28;20910;-76
2022/03/08 10:44:05;;;;;;;4.57;3.40;;;;;;;;;;4862553;29;20495;-78
2022/03/08 10:46:31;;;;;;;4.27;3.23;;;;;;;;;;4843216;29;20468;-77
2022/03/08 10:48:57;;;;;;;4.73;3.73;;;;;;;;;;4762961;29;20450;-75
2022/03/08 10:54:10;;;;;;;6.10;3.83;;;;;;;;;;5193111;27;20743;-75
2022/03/08 10:56:42;;;;;;;4.27;3.87;;;;;;;;;;5160500;27;20450;-77
2022/03/08 10:59:08;;;;;;;9.53;4.07;;;;;;;;;;5165640;27;20455;-77
2022/03/08 11:01:34;;;;;;;7.10;3.60;;;;;;;;;;5107126;28;20434;-76
2022/03/08 11:04:01;;;;;;;5.13;3.87;;;;;;;;;;5097068;28;20408;-76
2022/03/08 11:06:27;;;;;;;4.47;3.93;;;;;;;;;;5048905;28;20435;-77
2022/03/08 11:08:54;;;;;;;4.23;3.83;;;;;;;;;;5019567;28;20762;-76
2022/03/08 11:11:21;;;;;;;6.67;3.50;;;;;;;;;;5016953;28;20436;-77
2022/03/08 11:13:54;;;;;;;3.80;3.50;;;;;;;;;;4938622;28;20469;-75
2022/03/08 11:18:24;;;;;;;4.03;3.43;;;;;;;;;;5192859;27;20476;-77
2022/03/08 11:20:50;;;;;;;6.93;4.07;;;;;;;;;;5187899;27;20424;-77
2022/03/08 11:23:16;;;;;;;3.83;3.47;;;;;;;;;;5187205;27;20427;-77
2022/03/08 11:25:47;;;;;;;4.77;3.53;;;;;;;;;;5166972;27;20421;-77
2022/03/08 11:28:13;;;;;;;7.33;3.60;;;;;;;;;;5141940;27;20390;-75
2022/03/08 11:30:45;;;;;;;6.40;3.40;;;;;;;;;;5083132;28;20400;-76
2022/03/08 11:33:29;;;;;;;4.97;3.93;;;;;;;;;;5040501;28;20460;-74
2022/03/08 11:36:00;;;;;;;6.97;4.00;;;;;;;;;;4907399;28;20426;-77
2022/03/08 11:38:26;;;;;;;4.97;3.73;;;;;;;;;;4733356;29;20454;-75
2022/03/08 11:43:07;;;;;;;4.50;3.80;;;;;;;;;;5192889;27;21015;-76
2022/03/08 11:45:33;;;;;;;7.70;4.20;;;;;;;;;;5167073;27;20396;-78
2022/03/08 11:48:07;;;;;;;6.20;3.80;;;;;;;;;;5170919;27;20427;-77
2022/03/08 11:50:35;;;;;;;5.57;4.30;;;;;;;;;;5141703;27;20433;-77
2022/03/08 11:53:06;;;;;;;4.57;3.87;;;;;;;;;;5137574;27;20398;-78
2022/03/08 11:55:38;;;;;;;4.43;3.60;;;;;;;;;;5074654;28;20786;-78
2022/03/08 11:58:09;;;;;;;5.77;4.07;;;;;;;;;;4979912;28;20493;-76
2022/03/08 12:00:40;;;;;;;4.63;3.60;;;;;;;;;;4796259;29;20509;-77
2022/03/08 12:03:18;;;;;;;7.57;4.47;;;;;;;;;;4748631;30;20516;-77
2022/03/08 12:06:52;;;;;;;4.20;3.87;;;;;;;;;;5180559;27;20502;-76
2022/03/08 12:09:19;;;;;;;5.57;3.73;;;;;;;;;;5165550;27;20404;-78
2022/03/08 12:11:46;;;;;;;9.90;4.83;;;;;;;;;;5152436;27;20852;-79
2022/03/08 12:14:12;;;;;;;3.80;3.43;;;;;;;;;;5141308;27;20404;-75
2022/03/08 12:16:39;;;;;;;5.80;4.13;;;;;;;;;;5116477;27;20522;-76
2022/03/08 12:19:06;;;;;;;4.33;3.80;;;;;;;;;;5050696;28;20910;-76
2022/03/08 12:21:34;;;;;;;4.10;3.80;;;;;;;;;;4975234;28;20471;-77
2022/03/08 12:24:01;;;;;;;6.33;4.03;;;;;;;;;;4830089;28;20855;-75
2022/03/08 12:29:20;;;;;;;5.50;3.87;;;;;;;;;;5193178;27;20484;-75
2022/03/08 12:31:58;;;;;;;6.03;4.50;;;;;;;;;;5170105;27;20486;-77
2022/03/08 12:34:38;;;;;;;4.43;4.03;;;;;;;;;;5168420;27;20393;-75
2022/03/08 12:37:08;;;;;;;3.63;3.33;;;;;;;;;;5130627;27;20431;-76
2022/03/08 12:39:49;;;;;;;4.67;4.13;;;;;;;;;;5098654;28;20428;-75
2022/03/08 12:42:19;;;;;;;4.40;4.00;;;;;;;;;;5000310;28;20862;-76
2022/03/08 12:44:52;;;;;;;4.37;3.93;;;;;;;;;;4988375;28;20433;-76
2022/03/08 12:47:18;;;;;;;3.77;3.13;;;;;;;;;;4874639;28;20468;-77
2022/03/08 12:52:44;;;;;;;5.50;3.60;;;;;;;;;;5192676;27;20488;-76
2022/03/08 12:55:12;;;;;;;4.63;3.60;;;;;;;;;;5150696;27;20430;-76
2022/03/08 12:57:46;;;;;;;4.73;3.90;;;;;;;;;;5153958;27;20435;-76
2022/03/08 13:00:23;;;;;;;4.07;3.17;;;;;;;;;;5092555;28;20926;-77
2022/03/08 13:02:49;;;;;;;3.90;3.33;;;;;;;;;;4958050;28;20460;-76
2022/03/08 13:05:15;;;;;;;5.40;3.80;;;;;;;;;;4905851;29;20858;-76
2022/03/08 13:07:52;;;;;;;3.70;3.40;;;;;;;;;;4845312;29;20460;-76
2022/03/08 13:10:18;;;;;;;3.53;3.23;;;;;;;;;;4740237;29;20442;-76
2022/03/08 13:12:50;;;;;;;4.37;3.67;;;;;;;;;;4632498;30;20487;-75
2022/03/08 13:17:05;;;;;;;6.10;3.40;;;;;;;;;;5177780;27;20498;-77
2022/03/08 13:19:36;;;;;;;8.00;4.03;;;;;;;;;;5187844;27;20905;-77
2022/03/08 13:22:02;;;;;;;5.63;3.73;;;;;;;;;;5192094;27;20400;-77
2022/03/08 13:24:28;;;;;;;4.17;3.20;;;;;;;;;;5149517;27;20431;-78
2022/03/08 13:27:02;;;;;;;3.30;3.00;;;;;;;;;;5092267;28;20492;-76
2022/03/08 13:29:28;;;;;;;4.10;3.70;;;;;;;;;;4991128;28;20760;-77
2022/03/08 13:31:54;;;;;;;6.13;4.00;;;;;;;;;;4991205;28;20401;-76
2022/03/08 13:34:20;;;;;;;4.27;3.83;;;;;;;;;;4889761;28;20425;-75
2022/03/08 13:40:03;;;;;;;4.53;4.13;;;;;;;;;;5192806;27;20496;-76
2022/03/08 13:42:29;;;;;;;4.73;3.73;;;;;;;;;;5187845;27;20421;-76
2022/03/08 13:44:55;;;;;;;3.93;3.50;;;;;;;;;;5191901;27;20412;-76
2022/03/08 13:47:21;;;;;;;4.20;3.80;;;;;;;;;;5159161;27;20418;-76
2022/03/08 13:49:47;;;;;;;4.87;4.27;;;;;;;;;;5151851;27;20431;-76
2022/03/08 13:52:18;;;;;;;6.50;4.30;;;;;;;;;;5088828;28;20892;-77
2022/03/08 13:54:44;;;;;;;5.47;4.37;;;;;;;;;;5049599;28;20467;-76
2022/03/08 13:57:12;;;;;;;5.47;3.60;;;;;;;;;;4929062;28;20437;-76
2022/03/08 13:59:38;;;;;;;3.63;3.33;;;;;;;;;;4793864;29;20583;-75
2022/03/08 14:03:47;;;;;;;4.83;4.37;;;;;;;;;;5193091;27;20481;-76
2022/03/08 14:06:16;;;;;;;4.27;3.87;;;;;;;;;;5163667;27;21073;-75
2022/03/08 14:08:46;;;;;;;5.23;4.50;;;;;;;;;;5171123;27;20837;-76
2022/03/08 14:11:13;;;;;;;4.53;4.07;;;;;;;;;;5166769;27;20426;-75
2022/03/08 14:13:59;;;;;;;6.47;4.40;;;;;;;;;;5124331;27;20807;-75
2022/03/08 14:16:38;;;;;;;5.60;4.50;;;;;;;;;;5032348;28;20441;-76
2022/03/08 14:19:04;;;;;;;4.97;4.47;;;;;;;;;;4958912;28;20464;-75
2022/03/08 14:21:36;;;;;;;5.10;4.37;;;;;;;;;;4885875;29;20439;-76
2022/03/08 14:24:18;;;;;;;4.40;4.00;;;;;;;;;;4696243;29;20425;-76
2022/03/08 14:27:59;;;;;;;6.00;4.73;;;;;;;;;;5193122;27;20830;-77
2022/03/08 14:30:26;;;;;;;6.90;5.00;;;;;;;;;;5186752;27;20504;-76
2022/03/08 14:32:53;;;;;;;5.03;4.53;;;;;;;;;;5171140;27;20414;-77
2022/03/08 14:35:20;;;;;;;7.03;5.17;;;;;;;;;;5141588;27;20444;-78
2022/03/08 14:37:46;;;;;;;6.97;5.57;;;;;;;;;;5073612;28;20419;-76
2022/03/08 14:40:13;;;;;;;4.57;4.20;;;;;;;;;;4977950;28;20428;-77
2022/03/08 14:42:40;;;;;;;5.47;4.97;;;;;;;;;;4968009;28;20476;-76
2022/03/08 14:45:11;;;;;;;7.20;4.47;;;;;;;;;;4902853;28;20491;-76
2022/03/08 14:47:40;;;;;;;5.70;4.50;;;;;;;;;;4768445;29;20497;-77
2022/03/08 14:52:28;;;;;;;8.33;4.70;;;;;;;;;;5193181;27;20477;-77
2022/03/08 14:54:54;;;;;;;4.80;4.33;;;;;;;;;;5171426;27;20928;-77
2022/03/08 14:57:21;;;;;;;5.10;4.63;;;;;;;;;;5174767;27;20509;-77
2022/03/08 14:59:48;;;;;;;6.00;4.83;;;;;;;;;;5147137;27;20424;-77
2022/03/08 15:02:14;;;;;;;7.90;5.37;;;;;;;;;;5121633;27;20389;-76
2022/03/08 15:04:40;;;;;;;5.07;4.27;;;;;;;;;;5040844;28;20520;-76
2022/03/08 15:07:07;;;;;;;9.27;6.73;;;;;;;;;;4979647;28;20552;-77
2022/03/08 15:09:33;;;;;;;7.17;5.17;;;;;;;;;;4926426;28;20476;-76
2022/03/08 15:11:59;;;;;;;6.93;6.10;;;;;;;;;;4844544;29;20466;-77
2022/03/08 15:16:23;;;;;;;6.40;4.87;;;;;;;;;;5184295;27;20498;-75
2022/03/08 15:18:49;;;;;;;6.83;5.63;;;;;;;;;;5170473;27;20441;-76
2022/03/08 15:21:17;;;;;;;6.50;4.77;;;;;;;;;;5181827;27;20434;-76
2022/03/08 15:23:43;;;;;;;6.73;5.10;;;;;;;;;;5130419;27;20447;-77
2022/03/08 15:26:10;;;;;;;5.60;5.10;;;;;;;;;;5144105;27;20455;-77
2022/03/08 15:28:36;;;;;;;5.93;5.33;;;;;;;;;;5117412;28;20403;-76
2022/03/08 15:31:02;;;;;;;6.23;4.60;;;;;;;;;;5061289;28;21626;-78
2022/03/08 15:33:28;;;;;;;5.23;4.73;;;;;;;;;;4956640;28;20535;-78
2022/03/08 15:36:37;;;;;;;5.63;5.10;;;;;;;;;;5181808;27;20505;-77
2022/03/08 15:39:04;;;;;;;5.50;5.00;;;;;;;;;;5153470;27;20430;-78
2022/03/08 15:41:30;;;;;;;6.33;5.70;;;;;;;;;;5192561;27;20425;-77
2022/03/08 15:43:56;;;;;;;7.20;5.93;;;;;;;;;;5165010;27;20970;-77
2022/03/08 15:46:23;;;;;;;7.40;5.53;;;;;;;;;;5132535;27;20863;-77
2022/03/08 15:48:49;;;;;;;6.40;5.53;;;;;;;;;;5093846;27;20461;-78
2022/03/08 15:51:16;;;;;;;11.23;5.63;;;;;;;;;;5023626;28;20469;-77
2022/03/08 15:53:42;;;;;;;7.10;6.00;;;;;;;;;;4952847;28;20422;-77
2022/03/08 15:56:08;;;;;;;8.40;6.07;;;;;;;;;;4712938;29;20513;-78
2022/03/08 16:00:18;;;;;;;9.13;6.27;;;;;;;;;;5193114;27;20484;-77
2022/03/08 16:02:44;;;;;;;6.17;5.57;;;;;;;;;;5187788;27;20389;-77
2022/03/08 16:05:10;;;;;;;6.23;5.43;;;;;;;;;;5191629;27;20417;-80